Time;durP1;ratioP1;P1;durP2;ratioP2;P2;SDS_P1;SDS_P2;PMS_P1;PMS_P2;Temp;Humidity;BMP_temperature;BMP_pressure;BME280_temperature;BME280_humidity;BME280_pressure;Samples;Min_cycle;Max_cycle;Signal;HPM_P1;HPM_P2
2021/10/10 00:00:23;;;;;;;10.73;6.10;;;8.90;99.90;;;;;;5054901;28;20040;-74
2021/10/10 00:02:48;;;;;;;15.63;6.70;;;9.00;99.90;;;;;;5054095;28;20029;-74
2021/10/10 00:05:14;;;;;;;11.20;6.18;;;9.00;99.90;;;;;;5053768;28;20037;-73
2021/10/10 00:07:41;;;;;;;11.52;6.35;;;8.90;99.90;;;;;;5054716;28;20029;-73
2021/10/10 00:10:17;;;;;;;13.13;6.88;;;8.70;99.90;;;;;;5055151;28;20029;-74
2021/10/10 00:12:44;;;;;;;15.05;6.95;;;8.30;99.90;;;;;;5036762;28;20097;-74
2021/10/10 00:15:12;;;;;;;14.35;8.10;;;8.00;99.90;;;;;;5055010;28;20037;-74
2021/10/10 00:17:38;;;;;;;13.13;6.78;;;8.00;99.90;;;;;;5054348;28;20048;-73
2021/10/10 00:20:07;;;;;;;14.82;7.63;;;7.90;99.90;;;;;;5054462;28;20041;-73
2021/10/10 00:22:33;;;;;;;12.70;6.43;;;7.70;99.90;;;;;;5054477;28;20024;-74
2021/10/10 00:24:59;;;;;;;15.88;7.53;;;7.70;99.90;;;;;;5054269;28;20446;-74
2021/10/10 00:27:24;;;;;;;10.20;6.50;;;7.80;99.90;;;;;;5054695;28;20072;-74
2021/10/10 00:29:51;;;;;;;14.77;6.72;;;7.90;99.90;;;;;;5053127;28;20045;-74
2021/10/10 00:32:17;;;;;;;13.70;6.85;;;7.90;99.90;;;;;;5056501;28;20090;-74
2021/10/10 00:34:43;;;;;;;18.05;8.43;;;7.90;99.90;;;;;;5073321;28;20025;-74
2021/10/10 00:37:09;;;;;;;13.88;6.85;;;7.80;99.90;;;;;;5090180;28;20059;-74
2021/10/10 00:39:35;;;;;;;13.65;7.22;;;8.00;99.90;;;;;;5056643;28;20025;-74
2021/10/10 00:42:01;;;;;;;14.55;7.30;;;8.00;99.90;;;;;;5072703;28;20499;-74
2021/10/10 00:44:26;;;;;;;17.17;7.07;;;8.10;99.90;;;;;;5074060;28;20031;-74
2021/10/10 00:46:53;;;;;;;14.63;6.45;;;8.10;99.90;;;;;;5073803;28;20076;-74
2021/10/10 00:49:19;;;;;;;13.35;6.93;;;8.10;99.90;;;;;;5073772;28;20060;-74
2021/10/10 00:51:46;;;;;;;15.48;6.97;;;8.00;99.90;;;;;;5072569;28;20052;-74
2021/10/10 00:54:17;;;;;;;15.23;6.88;;;8.10;99.90;;;;;;5074272;28;20523;-74
2021/10/10 00:56:44;;;;;;;13.85;7.00;;;7.60;99.90;;;;;;5072545;28;20505;-74
2021/10/10 00:59:13;;;;;;;15.63;7.00;;;7.30;99.90;;;;;;5072933;28;20041;-74
2021/10/10 01:01:38;;;;;;;16.35;7.95;;;7.30;99.90;;;;;;5056204;28;20054;-74
2021/10/10 01:04:04;;;;;;;13.07;7.20;;;7.50;99.90;;;;;;5055261;28;20028;-74
2021/10/10 01:06:30;;;;;;;14.93;6.88;;;7.70;99.90;;;;;;5053933;28;20028;-74
2021/10/10 01:08:57;;;;;;;13.60;7.32;;;7.70;99.90;;;;;;5053543;28;20418;-74
2021/10/10 01:11:26;;;;;;;16.70;7.22;;;7.80;99.90;;;;;;5052650;28;20074;-74
2021/10/10 01:13:52;;;;;;;16.08;7.38;;;7.50;99.90;;;;;;5068764;28;20037;-75
2021/10/10 01:16:18;;;;;;;13.35;7.10;;;7.20;99.90;;;;;;5068851;28;20064;-74
2021/10/10 01:18:44;;;;;;;19.20;6.97;;;7.30;99.90;;;;;;5068281;28;20127;-74
2021/10/10 01:21:10;;;;;;;16.20;6.97;;;7.20;99.90;;;;;;5053318;28;20059;-74
2021/10/10 01:23:35;;;;;;;13.43;7.38;;;7.20;99.90;;;;;;5051928;28;20508;-74
2021/10/10 01:26:01;;;;;;;17.63;6.90;;;7.30;99.90;;;;;;5053119;28;20363;-74
2021/10/10 01:28:27;;;;;;;13.93;7.20;;;7.30;99.90;;;;;;5053466;28;20104;-74
2021/10/10 01:30:53;;;;;;;15.27;7.22;;;7.40;99.90;;;;;;5051747;28;20056;-74
2021/10/10 01:33:18;;;;;;;15.18;6.80;;;7.30;99.90;;;;;;5064760;28;20028;-74
2021/10/10 01:35:44;;;;;;;12.52;6.80;;;7.00;99.90;;;;;;5071806;28;20531;-74
2021/10/10 01:38:15;;;;;;;14.02;7.35;;;7.10;99.90;;;;;;5073103;28;20020;-74
2021/10/10 01:40:44;;;;;;;;;;;7.20;99.90;;;;;;5073457;28;20036;-74
2021/10/10 01:43:09;;;;;;;13.45;6.78;;;7.20;99.90;;;;;;5072946;28;19912;-74
2021/10/10 01:45:35;;;;;;;12.85;7.15;;;7.20;99.90;;;;;;5071682;28;20036;-75
2021/10/10 01:48:01;;;;;;;11.65;6.75;;;7.00;99.90;;;;;;5072427;28;20038;-74
2021/10/10 01:50:27;;;;;;;16.17;7.38;;;6.90;99.90;;;;;;5071636;28;20068;-74
2021/10/10 01:52:53;;;;;;;16.65;7.22;;;6.90;99.90;;;;;;5072406;28;20436;-75
2021/10/10 01:55:19;;;;;;;14.45;7.53;;;6.80;99.90;;;;;;5072773;28;20033;-74
2021/10/10 01:57:46;;;;;;;15.40;7.25;;;6.90;99.90;;;;;;5072705;28;20061;-74
2021/10/10 02:00:12;;;;;;;19.05;7.93;;;6.60;99.90;;;;;;5072777;28;20109;-74
2021/10/10 02:02:40;;;;;;;15.70;7.45;;;6.70;99.90;;;;;;5065044;28;20033;-74
2021/10/10 02:05:07;;;;;;;16.95;6.65;;;6.70;99.90;;;;;;5052427;28;20101;-74
2021/10/10 02:07:32;;;;;;;13.35;7.28;;;6.90;99.90;;;;;;5052585;28;20485;-74
2021/10/10 02:09:58;;;;;;;14.20;7.00;;;6.90;99.90;;;;;;5052631;28;20073;-74
2021/10/10 02:12:24;;;;;;;14.40;7.55;;;6.80;99.90;;;;;;5052532;28;20029;-74
2021/10/10 02:14:50;;;;;;;11.45;7.10;;;7.00;99.90;;;;;;5052216;28;20033;-74
2021/10/10 02:17:15;;;;;;;15.30;7.47;;;7.00;99.90;;;;;;5052123;28;20493;-76
2021/10/10 02:19:41;;;;;;;11.43;6.47;;;7.00;99.90;;;;;;5052692;28;20033;-75
2021/10/10 02:22:07;;;;;;;14.93;7.45;;;7.10;99.90;;;;;;5067510;28;20033;-74
2021/10/10 02:24:33;;;;;;;15.00;7.32;;;7.10;99.90;;;;;;5051205;28;20024;-74
2021/10/10 02:26:58;;;;;;;17.73;7.00;;;7.00;99.90;;;;;;5052447;28;20037;-74
2021/10/10 02:29:26;;;;;;;13.43;6.03;;;7.00;99.90;;;;;;5052068;28;20470;-74
2021/10/10 02:31:52;;;;;;;17.67;7.13;;;7.00;99.90;;;;;;5052339;28;20032;-74
2021/10/10 02:34:18;;;;;;;12.05;6.22;;;7.00;99.90;;;;;;5087764;28;20124;-74
2021/10/10 02:36:45;;;;;;;14.32;7.10;;;7.00;99.90;;;;;;5072304;28;20102;-74
2021/10/10 02:39:11;;;;;;;18.67;6.93;;;7.10;99.90;;;;;;5070808;28;20424;-74
2021/10/10 02:41:37;;;;;;;15.02;7.45;;;7.10;99.90;;;;;;5071163;28;20036;-74
2021/10/10 02:44:03;;;;;;;13.40;7.63;;;7.10;99.90;;;;;;5053855;28;20029;-74
2021/10/10 02:46:30;;;;;;;13.38;6.75;;;7.10;99.90;;;;;;5072301;28;20024;-74
2021/10/10 02:48:56;;;;;;;16.98;7.88;;;7.00;99.90;;;;;;5071995;28;20493;-74
2021/10/10 02:51:22;;;;;;;18.65;7.78;;;7.00;99.90;;;;;;5071886;28;20119;-74
2021/10/10 02:53:48;;;;;;;18.27;8.10;;;6.90;99.90;;;;;;5071952;28;20052;-74
2021/10/10 02:56:14;;;;;;;14.98;7.20;;;6.70;99.90;;;;;;5075646;28;20056;-73
2021/10/10 02:58:42;;;;;;;19.08;7.05;;;6.70;99.90;;;;;;5076335;28;20538;-74
2021/10/10 03:01:11;;;;;;;24.15;8.30;;;6.70;99.90;;;;;;5075943;28;20040;-74
2021/10/10 03:03:37;;;;;;;14.10;7.55;;;6.70;99.90;;;;;;5061843;28;20025;-74
2021/10/10 03:06:03;;;;;;;16.35;8.15;;;6.80;99.90;;;;;;5071550;28;20033;-73
2021/10/10 03:08:29;;;;;;;16.25;7.47;;;6.80;99.90;;;;;;5055886;28;20040;-74
2021/10/10 03:10:55;;;;;;;15.27;7.70;;;6.80;99.90;;;;;;5055947;28;20033;-74
2021/10/10 03:13:21;;;;;;;14.02;7.82;;;6.70;99.90;;;;;;5056039;28;20036;-74
2021/10/10 03:15:46;;;;;;;13.90;7.63;;;6.60;99.90;;;;;;5055907;28;20028;-74
2021/10/10 03:18:12;;;;;;;14.98;7.95;;;6.60;99.90;;;;;;5055451;28;20049;-74
2021/10/10 03:20:38;;;;;;;13.73;7.45;;;6.50;99.90;;;;;;5055628;28;20037;-74
2021/10/10 03:23:04;;;;;;;14.38;8.68;;;6.40;99.90;;;;;;5071251;28;20031;-74
2021/10/10 03:25:29;;;;;;;17.00;7.82;;;6.40;99.90;;;;;;5055441;28;20397;-73
2021/10/10 03:27:55;;;;;;;15.73;8.45;;;6.50;99.90;;;;;;5071162;28;20059;-73
2021/10/10 03:30:21;;;;;;;19.80;9.65;;;6.50;99.90;;;;;;5055808;28;20124;-74
2021/10/10 03:32:47;;;;;;;15.05;8.20;;;6.60;99.90;;;;;;5062890;28;20035;-73
2021/10/10 03:35:13;;;;;;;17.80;8.95;;;6.60;99.90;;;;;;5075332;28;20062;-73
2021/10/10 03:37:39;;;;;;;21.60;8.77;;;6.50;99.90;;;;;;5075645;28;20024;-74
2021/10/10 03:40:08;;;;;;;16.77;8.68;;;6.50;99.90;;;;;;5074247;28;20036;-74
2021/10/10 03:42:34;;;;;;;21.45;8.35;;;6.50;99.90;;;;;;5074171;28;20059;-74
2021/10/10 03:45:00;;;;;;;19.02;8.00;;;6.60;99.90;;;;;;5074929;28;20078;-73
2021/10/10 03:47:26;;;;;;;14.73;7.88;;;6.50;99.90;;;;;;5074184;28;20441;-73
2021/10/10 03:49:52;;;;;;;18.33;8.50;;;6.40;99.90;;;;;;5075164;28;20031;-74
2021/10/10 03:52:18;;;;;;;14.18;7.75;;;6.40;99.90;;;;;;5074859;28;20036;-73
2021/10/10 03:55:10;;;;;;;17.80;8.15;;;6.40;99.90;;;;;;5075279;28;20040;-74
2021/10/10 03:57:33;;;;;;;15.93;8.35;;;6.30;99.90;;;;;;5073790;28;20044;-73
2021/10/10 04:00:03;;;;;;;14.63;8.45;;;6.30;99.90;;;;;;5056263;28;20030;-73
2021/10/10 04:02:29;;;;;;;18.88;7.53;;;6.30;99.90;;;;;;5035226;28;20040;-74
2021/10/10 04:04:55;;;;;;;15.38;8.65;;;6.30;99.90;;;;;;5034551;28;20397;-74
2021/10/10 04:07:21;;;;;;;16.17;8.68;;;6.30;99.90;;;;;;5032665;28;20355;-74
2021/10/10 04:09:47;;;;;;;15.82;8.77;;;6.30;99.90;;;;;;5033371;28;20394;-73
2021/10/10 04:12:13;;;;;;;14.80;7.68;;;6.20;99.90;;;;;;5034966;28;20106;-74
2021/10/10 04:14:39;;;;;;;14.40;8.35;;;6.30;99.90;;;;;;5034713;28;20607;-74
2021/10/10 04:17:05;;;;;;;15.38;8.35;;;6.30;99.90;;;;;;5034930;28;20117;-74
2021/10/10 04:19:32;;;;;;;19.08;9.70;;;6.10;99.90;;;;;;5034838;28;20120;-74
2021/10/10 04:21:59;;;;;;;17.48;9.25;;;6.00;99.90;;;;;;5033287;28;20030;-74
2021/10/10 04:24:24;;;;;;;18.38;9.60;;;6.10;99.90;;;;;;5034750;28;20029;-74
2021/10/10 04:26:50;;;;;;;19.42;9.55;;;6.00;99.90;;;;;;5033132;28;20070;-74
2021/10/10 04:29:16;;;;;;;16.38;8.73;;;6.00;99.90;;;;;;5034651;28;20116;-74
2021/10/10 04:31:42;;;;;;;17.75;10.50;;;6.10;99.90;;;;;;5033426;28;20076;-74
2021/10/10 04:34:10;;;;;;;19.73;9.30;;;6.00;99.90;;;;;;5034146;28;20486;-73
2021/10/10 04:36:36;;;;;;;17.13;9.15;;;6.00;99.90;;;;;;5034253;28;20056;-73
2021/10/10 04:39:02;;;;;;;19.67;10.25;;;6.00;99.90;;;;;;5033170;28;20025;-73
2021/10/10 04:41:28;;;;;;;19.50;9.57;;;6.00;99.90;;;;;;5034358;28;20067;-74
2021/10/10 04:43:54;;;;;;;18.80;10.73;;;6.00;99.90;;;;;;5034226;28;20064;-74
2021/10/10 04:46:20;;;;;;;20.70;9.35;;;6.00;99.90;;;;;;5034054;28;20030;-73
2021/10/10 04:48:46;;;;;;;18.50;10.63;;;6.10;99.90;;;;;;5034020;28;20045;-74
2021/10/10 04:51:11;;;;;;;18.50;10.10;;;6.00;99.90;;;;;;5033804;28;20116;-73
2021/10/10 04:53:37;;;;;;;17.50;9.50;;;6.00;99.90;;;;;;5034365;28;20041;-74
2021/10/10 04:56:03;;;;;;;21.15;10.50;;;6.00;99.90;;;;;;5034153;28;20037;-73
2021/10/10 04:58:29;;;;;;;17.77;10.50;;;6.00;99.90;;;;;;5032784;28;20026;-74
2021/10/10 05:00:55;;;;;;;19.55;10.13;;;6.00;99.90;;;;;;5034125;28;20034;-74
2021/10/10 05:03:20;;;;;;;17.63;9.90;;;6.20;99.90;;;;;;5033667;28;20025;-74
2021/10/10 05:05:46;;;;;;;19.50;11.18;;;6.10;99.90;;;;;;5034001;28;20386;-74
2021/10/10 05:08:12;;;;;;;21.38;10.73;;;6.10;99.90;;;;;;5032487;28;20044;-74
2021/10/10 05:10:38;;;;;;;24.95;11.88;;;6.10;99.90;;;;;;5033931;28;20037;-74
2021/10/10 05:13:04;;;;;;;18.17;11.02;;;6.00;99.90;;;;;;5033716;28;20150;-74
2021/10/10 05:15:30;;;;;;;18.25;11.23;;;6.00;99.90;;;;;;5049149;28;20047;-74
2021/10/10 05:17:56;;;;;;;20.00;11.13;;;6.00;99.90;;;;;;5032025;28;20045;-74
2021/10/10 05:20:22;;;;;;;20.92;10.90;;;5.90;99.90;;;;;;5032471;28;20071;-73
2021/10/10 05:22:48;;;;;;;24.38;11.25;;;5.90;99.90;;;;;;5033570;28;20120;-74
2021/10/10 05:25:15;;;;;;;21.23;11.32;;;5.90;99.90;;;;;;5032132;28;20109;-74
2021/10/10 05:27:41;;;;;;;24.08;11.48;;;5.90;99.90;;;;;;5033641;28;20466;-74
2021/10/10 05:30:08;;;;;;;21.20;11.90;;;5.90;99.90;;;;;;5033476;28;20068;-74
2021/10/10 05:32:34;;;;;;;20.65;10.88;;;5.80;99.90;;;;;;5033162;28;20037;-74
2021/10/10 05:35:00;;;;;;;21.92;11.32;;;5.70;99.90;;;;;;5033290;28;20025;-74
2021/10/10 05:37:26;;;;;;;20.25;11.05;;;5.70;99.90;;;;;;5033172;28;20474;-74
2021/10/10 05:39:52;;;;;;;20.55;11.23;;;5.70;99.90;;;;;;5032286;28;20094;-74
2021/10/10 05:42:17;;;;;;;20.67;11.32;;;5.70;99.90;;;;;;5033133;28;20474;-74
2021/10/10 05:44:44;;;;;;;22.95;11.88;;;5.70;99.90;;;;;;5033331;28;20116;-74
2021/10/10 05:47:10;;;;;;;22.10;11.88;;;5.70;99.90;;;;;;5033103;28;20079;-74
2021/10/10 05:49:36;;;;;;;20.25;11.07;;;5.80;99.90;;;;;;5032109;28;20445;-74
2021/10/10 05:52:04;;;;;;;20.15;11.43;;;5.70;99.90;;;;;;5032921;28;20040;-74
2021/10/10 05:54:32;;;;;;;24.90;12.57;;;5.60;99.90;;;;;;5033160;28;20033;-74
2021/10/10 05:57:01;;;;;;;22.10;12.13;;;5.60;99.90;;;;;;5032789;28;20497;-74
2021/10/10 05:59:31;;;;;;;19.80;11.75;;;5.40;99.90;;;;;;5032582;28;20037;-74
2021/10/10 06:01:57;;;;;;;22.75;11.10;;;5.50;99.90;;;;;;5032882;28;20029;-75
2021/10/10 06:04:22;;;;;;;19.35;10.73;;;5.50;99.90;;;;;;5032799;28;20087;-75
2021/10/10 06:06:48;;;;;;;25.17;11.88;;;5.60;99.90;;;;;;5031718;28;20121;-75
2021/10/10 06:09:14;;;;;;;20.27;12.13;;;5.60;99.90;;;;;;5032445;28;20056;-74
2021/10/10 06:11:39;;;;;;;23.98;11.50;;;5.60;99.90;;;;;;5032815;28;20069;-74
2021/10/10 06:14:05;;;;;;;21.23;11.70;;;5.70;99.90;;;;;;5031134;28;20129;-77
2021/10/10 06:16:31;;;;;;;23.73;12.63;;;5.90;99.90;;;;;;5031416;28;20029;-74
2021/10/10 06:19:00;;;;;;;21.83;12.27;;;5.90;99.90;;;;;;5030882;28;20042;-76
2021/10/10 06:21:26;;;;;;;21.08;12.25;;;5.80;99.90;;;;;;5032022;28;20159;-80
2021/10/10 06:23:53;;;;;;;24.73;11.88;;;5.80;99.90;;;;;;5030628;28;20442;-82
2021/10/10 06:26:20;;;;;;;25.88;12.85;;;5.90;99.90;;;;;;5032013;28;20077;-78
2021/10/10 06:28:46;;;;;;;26.05;12.43;;;6.00;99.90;;;;;;5030530;28;20032;-84
2021/10/10 06:31:12;;;;;;;22.48;12.48;;;6.00;99.90;;;;;;5032058;28;20029;-82
2021/10/10 06:33:37;;;;;;;28.60;13.65;;;6.10;99.90;;;;;;5032123;28;20033;-82
2021/10/10 06:36:04;;;;;;;22.38;12.30;;;6.20;99.90;;;;;;5032518;28;20056;-80
2021/10/10 06:38:30;;;;;;;24.05;11.75;;;6.20;99.90;;;;;;5033881;28;20025;-80
2021/10/10 06:40:58;;;;;;;23.35;13.57;;;6.20;99.90;;;;;;5042483;28;20041;-76
2021/10/10 06:43:24;;;;;;;26.25;12.50;;;6.20;99.90;;;;;;5051955;28;20326;-76
2021/10/10 06:45:49;;;;;;;21.90;12.75;;;6.20;99.90;;;;;;5051491;28;20366;-85
2021/10/10 06:48:15;;;;;;;20.20;11.90;;;6.30;99.90;;;;;;5051025;28;20040;-78
2021/10/10 06:50:41;;;;;;;25.98;12.93;;;6.30;99.90;;;;;;5051363;28;20109;-81
2021/10/10 06:53:07;;;;;;;22.38;12.32;;;6.40;99.90;;;;;;5051370;28;20546;-80
2021/10/10 06:55:36;;;;;;;20.17;12.18;;;6.40;99.90;;;;;;5052188;28;20029;-79
2021/10/10 06:58:02;;;;;;;24.95;12.43;;;6.40;99.90;;;;;;5066891;28;20538;-81
2021/10/10 07:00:27;;;;;;;25.45;13.20;;;6.60;99.90;;;;;;5051769;28;20072;-79
2021/10/10 07:02:53;;;;;;;25.98;13.98;;;6.50;99.90;;;;;;5051920;28;20051;-77
2021/10/10 07:05:19;;;;;;;22.77;11.55;;;6.60;99.90;;;;;;5051468;28;20055;-78
2021/10/10 07:07:45;;;;;;;24.33;12.95;;;6.70;99.90;;;;;;5067329;28;20035;-78
2021/10/10 07:10:11;;;;;;;21.60;12.85;;;6.80;99.90;;;;;;5066788;28;20032;-79
2021/10/10 07:12:37;;;;;;;21.75;12.80;;;6.80;99.90;;;;;;5051553;28;20389;-80
2021/10/10 07:15:10;;;;;;;25.40;12.40;;;6.90;99.90;;;;;;5067184;28;20043;-78
2021/10/10 07:17:36;;;;;;;24.77;12.50;;;6.80;99.90;;;;;;5051640;28;20135;-79
2021/10/10 07:25:04;;;;;;;19.75;11.73;;;7.10;99.90;;;;;;5051620;28;20385;-77
2021/10/10 07:27:50;;;;;;;24.67;11.95;;;7.10;99.90;;;;;;5066194;28;20041;-77
2021/10/10 07:30:16;;;;;;;24.98;13.50;;;7.10;99.90;;;;;;5051242;28;20048;-76
2021/10/10 07:32:45;;;;;;;21.65;10.38;;;7.20;99.90;;;;;;5051498;28;20037;-79
2021/10/10 07:35:11;;;;;;;19.92;11.25;;;7.30;99.90;;;;;;5051465;28;20075;-83
2021/10/10 07:37:37;;;;;;;18.83;11.57;;;7.30;99.90;;;;;;5051923;28;20124;-82
2021/10/10 07:40:05;;;;;;;21.42;11.93;;;7.40;99.90;;;;;;5066719;28;20400;-73
2021/10/10 07:42:31;;;;;;;21.30;11.35;;;7.40;99.90;;;;;;5074929;28;20043;-74
2021/10/10 07:45:05;;;;;;;52.45;28.42;;;7.40;99.90;;;;;;5073626;28;20036;-70
2021/10/10 07:47:46;;;;;;;20.58;12.27;;;7.40;99.90;;;;;;5090692;28;20036;-73
2021/10/10 07:50:12;;;;;;;19.47;11.90;;;7.40;99.90;;;;;;5074830;28;20067;-73
2021/10/10 07:52:37;;;;;;;23.40;11.80;;;7.50;99.90;;;;;;5090452;28;20072;-74
2021/10/10 07:55:05;;;;;;;23.00;11.80;;;7.60;99.90;;;;;;5090758;28;20035;-74
2021/10/10 07:57:31;;;;;;;23.40;12.20;;;7.70;99.90;;;;;;5090662;28;20362;-75
2021/10/10 07:59:57;;;;;;;22.25;11.73;;;7.60;99.90;;;;;;5090328;28;20024;-76
2021/10/10 08:02:26;;;;;;;20.83;11.65;;;7.80;99.90;;;;;;5074791;28;20028;-75
2021/10/10 08:04:52;;;;;;;19.45;11.10;;;7.90;99.90;;;;;;5081728;28;20597;-74
2021/10/10 08:07:18;;;;;;;20.02;10.50;;;8.00;99.90;;;;;;5033335;28;20120;-80
2021/10/10 08:09:43;;;;;;;24.95;12.05;;;8.10;99.90;;;;;;5033544;28;20041;-76
2021/10/10 08:12:09;;;;;;;19.10;12.00;;;8.10;99.90;;;;;;5034380;28;20063;-79
2021/10/10 08:14:35;;;;;;;23.92;11.35;;;8.20;99.90;;;;;;5040274;28;20095;-73
2021/10/10 08:17:01;;;;;;;17.42;9.30;;;8.30;99.90;;;;;;5054545;28;20033;-74
2021/10/10 08:19:29;;;;;;;21.40;10.90;;;8.50;99.90;;;;;;5054119;28;20044;-75
2021/10/10 08:21:55;;;;;;;22.73;11.57;;;8.60;99.90;;;;;;5054502;28;20025;-75
2021/10/10 08:24:22;;;;;;;23.48;11.40;;;8.50;99.90;;;;;;5053890;28;20025;-75
2021/10/10 08:26:48;;;;;;;22.15;11.23;;;8.70;99.90;;;;;;5069760;28;20041;-75
2021/10/10 08:29:17;;;;;;;24.00;11.52;;;8.90;99.90;;;;;;5054094;28;20421;-75
2021/10/10 08:31:44;;;;;;;20.65;10.88;;;9.00;99.90;;;;;;5054255;28;20379;-75
2021/10/10 08:34:10;;;;;;;20.55;11.10;;;9.10;99.90;;;;;;5069617;28;20069;-71
2021/10/10 08:36:35;;;;;;;20.08;11.00;;;9.20;99.90;;;;;;5054143;28;20053;-72
2021/10/10 08:39:02;;;;;;;22.02;11.00;;;9.30;99.90;;;;;;5054155;28;20040;-74
2021/10/10 08:41:32;;;;;;;20.15;10.93;;;9.50;99.90;;;;;;5048795;28;20471;-75
2021/10/10 08:44:02;;;;;;;17.50;10.35;;;9.60;99.90;;;;;;5034159;28;20118;-75
2021/10/10 08:46:32;;;;;;;19.92;11.80;;;9.80;99.90;;;;;;5064042;28;20040;-76
2021/10/10 08:48:58;;;;;;;22.90;12.18;;;9.90;99.90;;;;;;5052753;28;20535;-75
2021/10/10 08:51:24;;;;;;;23.75;11.90;;;10.00;99.90;;;;;;5069232;28;20065;-74
2021/10/10 08:53:50;;;;;;;21.10;11.57;;;10.20;99.90;;;;;;5052597;28;20047;-69
2021/10/10 08:56:18;;;;;;;20.02;11.85;;;10.20;99.90;;;;;;5053800;28;20486;-69
2021/10/10 08:58:46;;;;;;;25.35;11.65;;;10.40;99.90;;;;;;5053881;28;20029;-71
2021/10/10 09:01:17;;;;;;;19.73;11.40;;;10.40;99.90;;;;;;5069130;28;20028;-70
2021/10/10 09:03:49;;;;;;;22.23;10.75;;;10.60;99.90;;;;;;5069393;28;20033;-70
2021/10/10 09:06:16;;;;;;;20.95;11.23;;;10.90;99.90;;;;;;5053642;28;20246;-72
2021/10/10 09:08:42;;;;;;;23.27;12.23;;;10.90;99.90;;;;;;5053368;28;20052;-70
2021/10/10 09:11:09;;;;;;;20.90;11.13;;;11.10;99.90;;;;;;5053279;28;20021;-70
2021/10/10 09:13:41;;;;;;;22.35;11.65;;;11.30;99.90;;;;;;5068807;28;20029;-71
2021/10/10 09:16:09;;;;;;;20.55;11.55;;;11.40;99.90;;;;;;5053692;28;20029;-70
2021/10/10 09:18:42;;;;;;;23.02;12.38;;;11.30;99.90;;;;;;5052929;28;20045;-70
2021/10/10 09:21:27;;;;;;;22.48;11.15;;;11.50;99.90;;;;;;5053492;28;20049;-71
2021/10/10 09:23:56;;;;;;;29.55;13.00;;;11.60;99.90;;;;;;5068612;28;20044;-71
2021/10/10 09:26:23;;;;;;;20.67;12.60;;;11.50;99.90;;;;;;5053079;28;20116;-66
2021/10/10 09:28:51;;;;;;;22.90;12.15;;;11.90;99.90;;;;;;5068666;28;20025;-71
2021/10/10 09:31:17;;;;;;;20.85;12.13;;;12.00;99.90;;;;;;5053124;28;20048;-72
2021/10/10 09:33:55;;;;;;;19.35;11.32;;;12.30;99.90;;;;;;5052806;28;20024;-72
2021/10/10 09:36:28;;;;;;;24.13;12.60;;;12.60;99.90;;;;;;5052825;28;20186;-66
2021/10/10 09:41:39;;;;;;;24.08;10.90;;;12.40;99.90;;;;;;5053005;28;20036;-69
2021/10/10 09:46:48;;;;;;;23.25;13.82;;;12.50;99.90;;;;;;5052872;28;20052;-74
2021/10/10 09:49:24;;;;;;;18.90;11.85;;;12.60;99.90;;;;;;5051403;28;20021;-75
2021/10/10 09:51:55;;;;;;;24.33;11.90;;;12.90;99.90;;;;;;5052787;28;20446;-73
2021/10/10 09:54:22;;;;;;;22.23;11.55;;;12.60;99.90;;;;;;5052626;28;20029;-74
2021/10/10 09:57:08;;;;;;;24.05;12.07;;;12.90;99.90;;;;;;5067997;28;20593;-73
2021/10/10 09:59:34;;;;;;;24.00;11.63;;;13.30;99.90;;;;;;5052394;28;20032;-74
2021/10/10 10:02:01;;;;;;;22.65;12.80;;;13.50;99.90;;;;;;5052445;28;20130;-73
2021/10/10 10:04:27;;;;;;;17.60;11.15;;;13.70;99.90;;;;;;5052146;28;20112;-72
2021/10/10 10:06:53;;;;;;;18.75;11.25;;;13.60;99.90;;;;;;5067885;28;20455;-71
2021/10/10 10:09:19;;;;;;;19.77;11.10;;;13.60;99.90;;;;;;5052307;28;20481;-71
2021/10/10 10:11:47;;;;;;;22.40;12.85;;;13.60;99.90;;;;;;5052551;28;20128;-71
2021/10/10 10:14:16;;;;;;;29.05;14.52;;;13.70;99.90;;;;;;5052072;28;20389;-73
2021/10/10 10:16:45;;;;;;;28.35;15.50;;;13.80;99.90;;;;;;5052093;28;20037;-73
2021/10/10 10:19:22;;;;;;;21.63;12.35;;;13.80;99.90;;;;;;5067453;28;20045;-79
2021/10/10 10:21:52;;;;;;;17.08;11.07;;;13.90;99.90;;;;;;5052154;28;20051;-75
2021/10/10 10:24:22;;;;;;;21.42;11.23;;;14.20;99.90;;;;;;5067825;28;20033;-72
2021/10/10 10:26:48;;;;;;;29.37;12.20;;;14.00;99.90;;;;;;5067261;28;20549;-78
2021/10/10 10:29:23;;;;;;;22.98;12.60;;;14.10;99.90;;;;;;5067639;28;20036;-77
2021/10/10 10:31:50;;;;;;;19.95;11.32;;;14.00;99.90;;;;;;5052501;28;20037;-77
2021/10/10 10:34:21;;;;;;;22.40;12.57;;;14.20;99.90;;;;;;5052555;28;20029;-80
2021/10/10 10:36:59;;;;;;;;;;;14.20;99.90;;;;;;5052525;28;20025;-77
2021/10/10 10:39:38;;;;;;;24.00;11.73;;;14.40;99.90;;;;;;5052141;28;19919;-68
2021/10/10 10:42:08;;;;;;;24.65;13.25;;;15.10;99.90;;;;;;5052204;28;20059;-69
2021/10/10 10:44:40;;;;;;;19.40;12.23;;;15.30;99.90;;;;;;5051511;28;20033;-72
2021/10/10 10:47:18;;;;;;;23.88;11.98;;;15.00;99.90;;;;;;5046515;28;20387;-74
2021/10/10 10:52:33;;;;;;;17.15;11.05;;;15.30;99.90;;;;;;5043861;28;20390;-72
2021/10/10 10:55:21;;;;;;;20.05;11.25;;;15.10;99.90;;;;;;5046655;28;20029;-72
2021/10/10 10:58:16;;;;;;;18.17;11.65;;;15.30;99.90;;;;;;5050170;28;20037;-72
2021/10/10 11:00:50;;;;;;;21.73;11.40;;;15.70;99.90;;;;;;5050844;28;20429;-73
2021/10/10 11:03:25;;;;;;;21.75;10.98;;;16.00;99.40;;;;;;5066973;28;20062;-72
2021/10/10 11:06:06;;;;;;;23.88;12.25;;;15.60;99.40;;;;;;5051789;28;20037;-73
2021/10/10 11:08:41;;;;;;;29.67;15.23;;;16.10;98.80;;;;;;5051724;28;20040;-72
2021/10/10 11:11:20;;;;;;;22.58;11.55;;;16.20;97.90;;;;;;5051801;28;20072;-72
2021/10/10 11:13:58;;;;;;;20.50;11.88;;;16.70;97.90;;;;;;5067267;28;20032;-75
2021/10/10 11:16:30;;;;;;;26.17;12.68;;;16.70;98.30;;;;;;5053924;28;20033;-71
2021/10/10 11:19:11;;;;;;;24.63;12.32;;;15.90;98.90;;;;;;5055495;28;20140;-72
2021/10/10 11:21:45;;;;;;;;;;;16.20;97.70;;;;;;5071180;28;20040;-73
2021/10/10 11:24:17;;;;;;;23.65;10.70;;;16.70;97.20;;;;;;5054601;28;19920;-72
2021/10/10 11:26:43;;;;;;;23.67;11.70;;;16.90;96.60;;;;;;5070808;28;20051;-71
2021/10/10 11:29:13;;;;;;;17.25;10.88;;;16.70;96.60;;;;;;5070971;28;20033;-71
2021/10/10 11:31:41;;;;;;;17.67;10.35;;;17.40;95.30;;;;;;5055074;28;20036;-69
2021/10/10 11:34:10;;;;;;;19.35;10.35;;;18.10;94.30;;;;;;5055578;28;20116;-68
2021/10/10 11:36:54;;;;;;;20.45;10.90;;;18.20;94.80;;;;;;5055155;28;20626;-73
2021/10/10 11:39:22;;;;;;;17.20;10.45;;;17.90;94.40;;;;;;5055309;28;20033;-73
2021/10/10 11:41:50;;;;;;;19.65;10.30;;;18.20;93.90;;;;;;5055292;28;20029;-73
2021/10/10 11:44:26;;;;;;;20.48;11.30;;;18.30;93.30;;;;;;5054995;28;20045;-71
2021/10/10 11:46:58;;;;;;;20.08;10.38;;;18.20;93.50;;;;;;5055142;28;20036;-72
2021/10/10 11:49:40;;;;;;;18.92;10.43;;;20.40;90.70;;;;;;5070127;28;20104;-72
2021/10/10 11:52:26;;;;;;;15.57;9.07;;;19.90;89.50;;;;;;5061579;28;20028;-80
2021/10/10 11:55:19;;;;;;;17.35;10.52;;;20.80;85.00;;;;;;5045320;28;20030;-72
2021/10/10 11:57:49;;;;;;;17.45;10.45;;;20.00;86.10;;;;;;5037895;28;20037;-64
2021/10/10 12:00:19;;;;;;;18.38;10.10;;;21.10;85.50;;;;;;5047388;28;20052;-72
2021/10/10 12:02:47;;;;;;;15.48;9.50;;;23.00;81.40;;;;;;5045785;28;20492;-71
2021/10/10 12:05:22;;;;;;;16.05;9.55;;;22.50;77.70;;;;;;5035013;28;20034;-71
2021/10/10 12:07:52;;;;;;;19.40;10.65;;;21.60;78.60;;;;;;5049591;28;20116;-71
2021/10/10 12:10:20;;;;;;;16.92;11.43;;;21.50;79.10;;;;;;5052260;28;20056;-71
2021/10/10 12:12:48;;;;;;;20.40;9.98;;;20.70;84.00;;;;;;5054422;28;20045;-70
2021/10/10 12:15:19;;;;;;;18.20;10.38;;;19.80;84.50;;;;;;5055034;28;20059;-71
2021/10/10 12:17:50;;;;;;;18.42;10.55;;;20.40;84.80;;;;;;5053201;28;20053;-71
2021/10/10 12:20:16;;;;;;;19.17;9.75;;;20.70;84.90;;;;;;5053329;28;20033;-71
2021/10/10 12:22:54;;;;;;;16.55;9.13;;;21.30;82.60;;;;;;5041165;28;20112;-71
2021/10/10 12:25:32;;;;;;;29.13;17.70;;;20.80;82.00;;;;;;5050750;28;20037;-71
2021/10/10 12:28:14;;;;;;;15.98;9.88;;;21.10;81.30;;;;;;5052963;28;20530;-73
2021/10/10 12:30:57;;;;;;;18.13;10.15;;;19.60;84.40;;;;;;5053042;28;20032;-72
2021/10/10 12:33:40;;;;;;;15.25;9.25;;;18.80;87.30;;;;;;5054460;28;20104;-72
2021/10/10 12:36:06;;;;;;;16.38;9.98;;;18.90;85.70;;;;;;5054222;28;20543;-71
2021/10/10 12:38:43;;;;;;;17.30;9.65;;;19.10;86.70;;;;;;5054158;28;20120;-71
2021/10/10 12:41:28;;;;;;;20.77;10.32;;;18.80;88.40;;;;;;5053862;28;20029;-72
2021/10/10 12:44:14;;;;;;;18.30;9.75;;;19.00;85.90;;;;;;5054179;28;20363;-72
2021/10/10 12:46:56;;;;;;;17.30;9.70;;;20.30;84.70;;;;;;5053480;28;20386;-71
2021/10/10 12:49:33;;;;;;;17.83;10.70;;;20.70;81.60;;;;;;5053912;28;20611;-71
2021/10/10 12:52:02;;;;;;;13.63;9.27;;;19.70;83.10;;;;;;5041385;28;20037;-72
2021/10/10 12:54:30;;;;;;;14.88;8.70;;;20.60;84.70;;;;;;5042520;28;20033;-74
2021/10/10 12:57:13;;;;;;;14.25;8.52;;;21.10;82.70;;;;;;5053444;28;20033;-75